Time;durP1;ratioP1;P1;durP2;ratioP2;P2;SDS_P1;SDS_P2;PMS_P1;PMS_P2;Temp;Humidity;BMP_temperature;BMP_pressure;BME280_temperature;BME280_humidity;BME280_pressure;Samples;Min_cycle;Max_cycle;Signal;HPM_P1;HPM_P2
2022/03/31 00:01:38;;;;;;;3.60;2.10;;;1.00;99.90;;;;;;5056225;28;20490;-70
2022/03/31 00:04:03;;;;;;;4.20;1.85;;;0.90;99.90;;;;;;5056355;28;20064;-70
2022/03/31 00:06:29;;;;;;;3.65;1.70;;;1.00;99.90;;;;;;5056295;28;20029;-70
2022/03/31 00:08:55;;;;;;;3.25;2.15;;;0.90;99.90;;;;;;5056422;28;20036;-70
2022/03/31 00:11:21;;;;;;;7.95;2.22;;;0.90;99.90;;;;;;5056521;28;20025;-70
2022/03/31 00:13:47;;;;;;;2.58;1.73;;;1.00;99.90;;;;;;5056710;28;20108;-70
2022/03/31 00:16:12;;;;;;;3.28;2.30;;;0.90;99.90;;;;;;5056516;28;20048;-70
2022/03/31 00:18:38;;;;;;;3.97;2.10;;;0.90;99.90;;;;;;5056372;28;20110;-70
2022/03/31 00:21:04;;;;;;;2.60;2.05;;;1.00;99.90;;;;;;5056916;28;20025;-70
2022/03/31 00:23:29;;;;;;;4.28;2.20;;;0.90;99.90;;;;;;5056344;28;20024;-70
2022/03/31 00:25:55;;;;;;;7.60;2.65;;;1.00;99.90;;;;;;5056623;28;20017;-70
2022/03/31 00:28:21;;;;;;;6.15;2.47;;;0.90;99.90;;;;;;5056586;28;20021;-70
2022/03/31 00:30:47;;;;;;;4.28;2.13;;;1.00;99.90;;;;;;5056332;28;20044;-70
2022/03/31 00:33:13;;;;;;;4.28;2.25;;;0.90;99.90;;;;;;5056646;28;20021;-71
2022/03/31 00:35:39;;;;;;;7.55;2.47;;;1.00;99.90;;;;;;5037742;28;20534;-71
2022/03/31 00:38:04;;;;;;;3.40;2.33;;;1.00;99.90;;;;;;5055531;28;20025;-71
2022/03/31 00:40:31;;;;;;;2.88;1.88;;;1.00;99.90;;;;;;5055584;28;20499;-71
2022/03/31 00:42:58;;;;;;;6.35;2.25;;;1.00;99.90;;;;;;5054543;28;20467;-71
2022/03/31 00:45:46;;;;;;;6.50;2.35;;;1.00;99.90;;;;;;5054531;28;20045;-71
2022/03/31 00:48:13;;;;;;;2.40;2.05;;;1.00;99.90;;;;;;5055321;28;20029;-71
2022/03/31 00:50:39;;;;;;;2.40;1.80;;;1.00;99.90;;;;;;5055221;28;20104;-71
2022/03/31 00:53:05;;;;;;;4.53;2.28;;;1.00;99.90;;;;;;5054848;28;20029;-72
2022/03/31 00:55:31;;;;;;;2.70;2.35;;;1.00;99.90;;;;;;5054937;28;20032;-72
2022/03/31 00:57:57;;;;;;;4.32;2.40;;;1.00;99.90;;;;;;5055242;28;20020;-72
2022/03/31 01:00:23;;;;;;;3.33;2.15;;;0.90;99.90;;;;;;5054958;28;20485;-72
2022/03/31 01:02:49;;;;;;;2.10;1.70;;;1.00;99.90;;;;;;5054935;28;20044;-72
2022/03/31 01:05:14;;;;;;;2.42;1.92;;;1.00;99.90;;;;;;5055052;28;20068;-71
2022/03/31 01:07:40;;;;;;;3.30;2.65;;;0.90;99.90;;;;;;5054570;28;20025;-71
2022/03/31 01:10:07;;;;;;;6.68;2.33;;;1.00;99.90;;;;;;5054497;28;20029;-71
2022/03/31 01:12:34;;;;;;;4.20;2.40;;;1.00;99.90;;;;;;5054427;28;20444;-71
2022/03/31 01:15:06;;;;;;;4.50;2.22;;;0.90;99.90;;;;;;5054597;28;20060;-71
2022/03/31 01:17:32;;;;;;;6.93;2.55;;;0.90;99.90;;;;;;5054360;28;20025;-71
2022/03/31 01:19:58;;;;;;;5.03;2.40;;;0.90;99.90;;;;;;5054356;28;20496;-71
2022/03/31 01:22:27;;;;;;;4.55;2.83;;;0.90;99.90;;;;;;5054430;28;20033;-71
2022/03/31 01:24:53;;;;;;;6.07;2.83;;;0.90;99.90;;;;;;5054724;28;20032;-71
2022/03/31 01:27:19;;;;;;;3.15;2.47;;;0.90;99.90;;;;;;5054582;28;20037;-71
2022/03/31 01:29:44;;;;;;;4.90;2.40;;;0.90;99.90;;;;;;5055107;28;20029;-71
2022/03/31 01:32:11;;;;;;;6.13;2.65;;;0.90;99.90;;;;;;5054834;28;20105;-71
2022/03/31 01:34:37;;;;;;;5.28;2.90;;;0.90;99.90;;;;;;5036634;28;20029;-71
2022/03/31 01:37:04;;;;;;;2.78;2.05;;;0.90;99.90;;;;;;5054906;28;20021;-71
2022/03/31 01:39:29;;;;;;;3.72;2.53;;;0.90;99.90;;;;;;5054596;28;20029;-71
2022/03/31 01:41:55;;;;;;;6.13;2.35;;;0.90;99.90;;;;;;5054514;28;20025;-71
2022/03/31 01:44:21;;;;;;;7.47;2.50;;;0.90;99.90;;;;;;5054140;28;20099;-71
2022/03/31 01:46:48;;;;;;;8.63;2.88;;;0.90;99.90;;;;;;5053909;28;20117;-71
2022/03/31 01:49:13;;;;;;;3.63;2.55;;;0.90;99.90;;;;;;5036064;28;20036;-71
2022/03/31 01:51:39;;;;;;;6.05;3.22;;;0.90;99.90;;;;;;5053835;28;20037;-71
2022/03/31 01:54:05;;;;;;;7.13;3.10;;;0.90;99.90;;;;;;5053498;28;20020;-71
2022/03/31 01:56:30;;;;;;;6.60;3.58;;;0.90;99.90;;;;;;5053768;28;20071;-71
2022/03/31 01:58:57;;;;;;;6.85;3.67;;;0.90;99.90;;;;;;5054374;28;20377;-71
2022/03/31 02:01:22;;;;;;;17.08;3.70;;;0.90;99.90;;;;;;5054168;28;20048;-71
2022/03/31 02:03:48;;;;;;;9.02;4.32;;;0.90;99.90;;;;;;5053786;28;20041;-71
2022/03/31 02:06:14;;;;;;;14.02;4.13;;;0.90;99.90;;;;;;5054061;28;20021;-71
2022/03/31 02:08:39;;;;;;;6.97;3.50;;;0.90;99.90;;;;;;5053701;28;20021;-70
2022/03/31 02:11:05;;;;;;;6.53;3.53;;;0.90;99.90;;;;;;5053556;28;20044;-70
2022/03/31 02:13:30;;;;;;;6.63;3.25;;;0.90;99.90;;;;;;5053417;28;20103;-71
2022/03/31 02:15:56;;;;;;;10.77;4.35;;;0.90;99.90;;;;;;5053672;28;20377;-71
2022/03/31 02:18:22;;;;;;;10.57;3.67;;;0.80;99.90;;;;;;5053405;28;20477;-70
2022/03/31 02:20:47;;;;;;;12.18;4.75;;;0.80;99.90;;;;;;5053352;28;20017;-70
2022/03/31 02:23:13;;;;;;;5.50;3.53;;;0.90;99.90;;;;;;5053323;28;20095;-70
2022/03/31 02:25:39;;;;;;;17.00;5.03;;;0.90;99.90;;;;;;5053381;28;20029;-70
2022/03/31 02:28:04;;;;;;;10.43;4.22;;;0.80;99.90;;;;;;5053536;28;20386;-70
2022/03/31 02:30:31;;;;;;;9.93;4.53;;;0.80;99.90;;;;;;5053298;28;20025;-71
2022/03/31 02:32:59;;;;;;;8.70;4.53;;;0.80;99.90;;;;;;5035486;28;20028;-71
2022/03/31 02:35:25;;;;;;;10.27;5.72;;;0.80;99.90;;;;;;5053209;28;20503;-71
2022/03/31 02:37:50;;;;;;;14.10;5.47;;;0.80;99.90;;;;;;5053201;28;20025;-71
2022/03/31 02:40:16;;;;;;;13.32;5.63;;;0.80;99.90;;;;;;5053148;28;20021;-71
2022/03/31 02:42:42;;;;;;;11.90;5.30;;;0.80;99.90;;;;;;5053232;28;20092;-70
2022/03/31 02:45:07;;;;;;;12.18;5.60;;;0.80;99.90;;;;;;5053118;28;20120;-70
2022/03/31 02:47:34;;;;;;;11.88;5.35;;;0.80;99.90;;;;;;5053347;28;20032;-70
2022/03/31 02:50:00;;;;;;;7.57;4.85;;;0.80;99.90;;;;;;5053043;28;20052;-70
2022/03/31 02:55:24;;;;;;;9.40;5.43;;;0.80;99.90;;;;;;5053032;28;20040;-70
2022/03/31 02:55:30;;;;;;;24.67;5.93;;;0.80;99.90;;;;;;5052784;28;20029;-70
2022/03/31 02:58:01;;;;;;;9.75;4.90;;;0.80;99.90;;;;;;5053029;28;20021;-70
2022/03/31 03:00:28;;;;;;;9.15;4.75;;;0.70;99.90;;;;;;5053011;28;20044;-70
2022/03/31 03:02:53;;;;;;;14.40;4.57;;;0.70;99.90;;;;;;5052908;28;20021;-70
2022/03/31 03:05:20;;;;;;;8.07;3.83;;;0.70;99.90;;;;;;5052862;28;20047;-70
2022/03/31 03:07:45;;;;;;;10.45;3.80;;;0.70;99.90;;;;;;5055411;28;20017;-70
2022/03/31 03:10:13;;;;;;;7.75;3.28;;;0.70;99.90;;;;;;5057039;28;20154;-70
2022/03/31 03:12:41;;;;;;;11.45;3.63;;;0.60;99.90;;;;;;5057293;28;20032;-70
2022/03/31 03:15:07;;;;;;;11.20;3.00;;;0.60;99.90;;;;;;5056832;28;20086;-70
2022/03/31 03:17:33;;;;;;;10.00;3.17;;;0.60;99.90;;;;;;5056740;28;20039;-70
2022/03/31 03:19:58;;;;;;;6.47;2.65;;;0.60;99.90;;;;;;5056624;28;20013;-70
2022/03/31 03:22:24;;;;;;;5.90;3.00;;;0.60;99.90;;;;;;5056491;28;20017;-70
2022/03/31 03:24:49;;;;;;;9.35;3.30;;;0.60;99.90;;;;;;5057129;28;20063;-70
2022/03/31 03:27:15;;;;;;;9.93;3.65;;;0.60;99.90;;;;;;5057294;28;20033;-71
2022/03/31 03:29:46;;;;;;;7.53;2.83;;;0.60;99.90;;;;;;5056636;28;20028;-70
2022/03/31 03:32:14;;;;;;;15.00;3.00;;;0.60;99.90;;;;;;5056933;28;20465;-70
2022/03/31 03:34:40;;;;;;;9.15;3.10;;;0.60;99.90;;;;;;5056123;28;20060;-70
2022/03/31 03:37:06;;;;;;;8.82;2.67;;;0.60;99.90;;;;;;5056335;28;20465;-70
2022/03/31 03:39:34;;;;;;;5.20;2.30;;;0.60;99.90;;;;;;5056403;28;20013;-70
2022/03/31 03:42:00;;;;;;;9.80;2.88;;;0.60;99.90;;;;;;5056528;28;20021;-70
2022/03/31 03:44:26;;;;;;;8.05;2.42;;;0.70;99.90;;;;;;5056427;28;20029;-70
2022/03/31 03:46:52;;;;;;;6.30;2.10;;;0.60;99.90;;;;;;5032267;23;20049;-70
2022/03/31 03:49:18;;;;;;;12.43;2.50;;;0.60;99.90;;;;;;5036380;28;20023;-70
2022/03/31 03:51:44;;;;;;;10.10;1.85;;;0.70;99.90;;;;;;5036569;28;20105;-70
2022/03/31 03:54:10;;;;;;;6.63;2.00;;;0.60;99.90;;;;;;5035991;28;20437;-70
2022/03/31 03:56:36;;;;;;;5.30;1.90;;;0.60;99.90;;;;;;5035955;28;20056;-70
2022/03/31 03:59:01;;;;;;;7.70;1.90;;;0.60;99.90;;;;;;5035895;28;20029;-70
2022/03/31 04:01:27;;;;;;;7.10;1.77;;;0.60;99.90;;;;;;5036156;28;20053;-70
2022/03/31 04:03:52;;;;;;;8.57;1.60;;;0.60;99.90;;;;;;5035967;28;20025;-70
2022/03/31 04:06:18;;;;;;;2.55;1.23;;;0.60;99.90;;;;;;5035710;28;20040;-70
2022/03/31 04:08:43;;;;;;;3.08;0.93;;;0.60;99.90;;;;;;5035708;28;20036;-71
2022/03/31 04:11:09;;;;;;;4.88;1.20;;;0.60;99.90;;;;;;5036058;28;20067;-70
2022/03/31 04:13:34;;;;;;;4.53;1.25;;;0.70;99.90;;;;;;5035601;28;20026;-70
2022/03/31 04:16:00;;;;;;;9.32;1.55;;;0.70;99.90;;;;;;5036129;28;20028;-70
2022/03/31 04:18:26;;;;;;;4.57;1.33;;;0.80;99.90;;;;;;5035758;28;20021;-70
2022/03/31 04:20:51;;;;;;;0.80;0.80;;;0.80;99.90;;;;;;5035543;28;20393;-71
2022/03/31 04:23:17;;;;;;;4.72;1.17;;;0.80;99.90;;;;;;5035465;28;20021;-70
2022/03/31 04:25:42;;;;;;;3.45;1.15;;;0.80;99.90;;;;;;5035679;28;20477;-70
2022/03/31 04:28:08;;;;;;;8.23;0.95;;;0.70;99.90;;;;;;5035438;28;20388;-70
2022/03/31 04:30:34;;;;;;;4.55;1.30;;;0.70;99.90;;;;;;5035667;28;20025;-70
2022/03/31 04:32:59;;;;;;;1.23;1.13;;;0.70;99.90;;;;;;5035318;28;20389;-71
2022/03/31 04:35:25;;;;;;;4.07;1.10;;;0.70;99.90;;;;;;5035169;28;20025;-70
2022/03/31 04:37:50;;;;;;;2.65;0.80;;;0.70;99.90;;;;;;5035813;28;20017;-70
2022/03/31 04:40:16;;;;;;;2.13;0.80;;;0.70;99.90;;;;;;5035450;28;20049;-70
2022/03/31 04:42:42;;;;;;;1.33;0.80;;;0.70;99.90;;;;;;5035415;28;20533;-70
2022/03/31 04:45:08;;;;;;;5.43;0.90;;;0.70;99.90;;;;;;5035097;28;20477;-70
2022/03/31 04:47:34;;;;;;;2.47;0.73;;;0.80;99.90;;;;;;5035328;28;20069;-70
2022/03/31 04:50:00;;;;;;;4.55;1.13;;;0.80;99.90;;;;;;5034997;28;20061;-71
2022/03/31 04:52:26;;;;;;;4.70;0.95;;;0.80;99.90;;;;;;5034996;28;20060;-71
2022/03/31 04:54:51;;;;;;;5.03;0.95;;;0.90;99.90;;;;;;5035077;28;20060;-71
2022/03/31 04:57:18;;;;;;;2.45;1.25;;;0.80;99.90;;;;;;5034814;28;20017;-70
2022/03/31 04:59:44;;;;;;;5.30;0.90;;;0.80;99.90;;;;;;5034776;28;20025;-70
2022/03/31 05:02:11;;;;;;;2.50;0.93;;;0.90;99.90;;;;;;5034829;28;20025;-70
2022/03/31 05:04:37;;;;;;;4.53;0.90;;;0.80;99.90;;;;;;5034962;28;20052;-70
2022/03/31 05:07:03;;;;;;;3.03;0.80;;;0.80;99.90;;;;;;5034633;28;20029;-70
2022/03/31 05:09:29;;;;;;;4.78;1.10;;;0.90;99.90;;;;;;5034681;28;20022;-70
2022/03/31 05:11:55;;;;;;;3.65;1.10;;;0.90;99.90;;;;;;5034857;28;20116;-70
2022/03/31 05:14:20;;;;;;;3.83;0.98;;;0.90;99.90;;;;;;5034841;28;20025;-70
2022/03/31 05:16:46;;;;;;;3.85;1.30;;;0.80;99.90;;;;;;5034734;28;20021;-70
2022/03/31 05:19:12;;;;;;;0.75;0.75;;;0.80;99.90;;;;;;5034428;28;20032;-70
2022/03/31 05:21:38;;;;;;;4.13;1.33;;;0.80;99.90;;;;;;5034349;28;20059;-70
2022/03/31 05:24:04;;;;;;;7.57;1.45;;;0.80;99.90;;;;;;5034403;28;20030;-70
2022/03/31 05:26:29;;;;;;;6.47;1.08;;;0.80;99.90;;;;;;5034207;28;20036;-70
2022/03/31 05:28:55;;;;;;;5.20;0.90;;;0.90;99.90;;;;;;5034052;28;20390;-71
2022/03/31 05:31:21;;;;;;;2.80;1.00;;;0.90;99.90;;;;;;5033969;28;20044;-70
2022/03/31 05:33:46;;;;;;;3.35;1.38;;;0.90;99.90;;;;;;5034085;28;20033;-70
2022/03/31 05:36:12;;;;;;;6.13;0.90;;;0.90;99.90;;;;;;5034110;28;20101;-70
2022/03/31 05:38:38;;;;;;;5.45;1.10;;;0.90;99.90;;;;;;5034185;28;20021;-70
2022/03/31 05:41:03;;;;;;;2.83;1.05;;;0.90;99.90;;;;;;5034604;28;20017;-70
2022/03/31 05:43:29;;;;;;;3.90;0.90;;;0.90;99.90;;;;;;5034041;28;20033;-70
2022/03/31 05:45:55;;;;;;;8.52;1.02;;;0.90;99.90;;;;;;5034178;28;20037;-70
2022/03/31 05:48:20;;;;;;;2.55;1.00;;;1.00;99.90;;;;;;5034262;28;20025;-70
2022/03/31 05:50:46;;;;;;;5.50;1.00;;;1.10;99.90;;;;;;5034179;28;20034;-70
2022/03/31 05:53:13;;;;;;;1.45;0.93;;;1.10;99.90;;;;;;5033904;28;20029;-70
2022/03/31 05:55:40;;;;;;;4.00;1.10;;;1.20;99.90;;;;;;5033705;28;20539;-70
2022/03/31 05:58:07;;;;;;;4.47;0.90;;;1.20;99.90;;;;;;5034057;28;20028;-70
2022/03/31 06:00:33;;;;;;;9.63;1.60;;;1.20;99.90;;;;;;5034322;28;20057;-70
2022/03/31 06:02:58;;;;;;;6.22;1.50;;;1.20;99.90;;;;;;5033702;28;20087;-70
2022/03/31 06:05:24;;;;;;;2.88;1.10;;;1.20;99.90;;;;;;5033645;28;20515;-70
2022/03/31 06:07:52;;;;;;;2.05;0.88;;;1.20;99.90;;;;;;5033657;28;20068;-70
2022/03/31 06:10:18;;;;;;;6.85;1.85;;;1.10;99.90;;;;;;5033600;28;20115;-70
2022/03/31 06:12:44;;;;;;;8.18;1.40;;;1.20;99.90;;;;;;5033574;28;20053;-70
2022/03/31 06:15:10;;;;;;;4.20;1.35;;;1.30;99.90;;;;;;5033657;28;20478;-70
2022/03/31 06:17:39;;;;;;;2.35;0.95;;;1.30;99.90;;;;;;5033547;28;20052;-70
2022/03/31 06:20:06;;;;;;;2.50;1.00;;;1.30;99.90;;;;;;5033468;28;20535;-70
2022/03/31 06:22:31;;;;;;;1.17;1.08;;;1.40;99.90;;;;;;5033525;28;20021;-70
2022/03/31 06:24:57;;;;;;;9.32;1.83;;;1.40;99.90;;;;;;5033814;28;20064;-71
2022/03/31 06:27:22;;;;;;;2.70;1.08;;;1.40;99.90;;;;;;5034415;28;20112;-70
2022/03/31 06:29:49;;;;;;;4.00;1.23;;;1.50;99.90;;;;;;5033476;28;20026;-69
2022/03/31 06:32:15;;;;;;;2.65;1.23;;;1.50;99.90;;;;;;5033422;28;20021;-70
2022/03/31 06:34:41;;;;;;;6.13;2.15;;;1.60;99.90;;;;;;5033623;28;20024;-70
2022/03/31 06:37:08;;;;;;;8.55;1.85;;;1.60;99.90;;;;;;5033435;28;20088;-71
2022/03/31 06:39:33;;;;;;;5.63;1.35;;;1.60;99.90;;;;;;5033581;28;20420;-70
2022/03/31 06:41:59;;;;;;;4.15;1.70;;;1.60;99.90;;;;;;5035190;28;20025;-70
2022/03/31 06:44:25;;;;;;;3.13;1.40;;;1.70;99.90;;;;;;5037398;28;20397;-70
2022/03/31 06:46:51;;;;;;;3.30;1.48;;;1.70;99.90;;;;;;5037162;28;20076;-71
2022/03/31 06:49:17;;;;;;;3.00;1.60;;;1.70;99.90;;;;;;5037311;28;20029;-70
2022/03/31 06:51:46;;;;;;;4.25;1.90;;;1.80;99.90;;;;;;5037419;28;20076;-70
2022/03/31 06:54:11;;;;;;;9.70;2.35;;;1.80;99.90;;;;;;5037373;28;20070;-70
2022/03/31 06:56:37;;;;;;;13.80;3.72;;;1.80;99.90;;;;;;5037220;28;20026;-70
2022/03/31 06:59:03;;;;;;;15.05;5.20;;;1.80;99.90;;;;;;5037134;28;20523;-70
2022/03/31 07:01:29;;;;;;;12.63;2.92;;;1.80;99.90;;;;;;5037068;28;20033;-70
2022/03/31 07:03:55;;;;;;;12.13;1.92;;;1.90;99.90;;;;;;5037055;28;20465;-70
2022/03/31 07:06:22;;;;;;;12.05;2.88;;;1.90;99.90;;;;;;5036940;28;20021;-70
2022/03/31 07:08:48;;;;;;;4.68;1.70;;;1.90;99.90;;;;;;5036904;28;20021;-70
2022/03/31 07:11:14;;;;;;;7.93;2.50;;;1.90;99.90;;;;;;5036962;28;20026;-70
2022/03/31 07:13:39;;;;;;;3.38;1.52;;;2.00;99.90;;;;;;5036836;28;20492;-70
2022/03/31 07:16:05;;;;;;;6.93;1.92;;;2.00;99.90;;;;;;5037034;28;20022;-71
2022/03/31 07:18:31;;;;;;;6.28;1.45;;;2.00;99.90;;;;;;5036900;28;20029;-70
2022/03/31 07:20:59;;;;;;;20.25;9.60;;;2.00;99.90;;;;;;5036989;28;20033;-70
2022/03/31 07:23:26;;;;;;;9.02;1.80;;;2.10;99.90;;;;;;5036735;28;20119;-71
2022/03/31 07:25:53;;;;;;;5.38;2.55;;;2.10;99.90;;;;;;5036614;28;20036;-70
2022/03/31 07:28:20;;;;;;;6.50;1.67;;;2.10;99.90;;;;;;5036577;28;20040;-70
2022/03/31 07:30:46;;;;;;;13.80;1.63;;;2.20;99.90;;;;;;5037049;28;20100;-70
2022/03/31 07:33:11;;;;;;;11.73;1.80;;;2.20;99.90;;;;;;5036558;28;20026;-70
2022/03/31 07:35:37;;;;;;;9.48;2.97;;;2.30;99.90;;;;;;5036656;28;20361;-70
2022/03/31 07:38:07;;;;;;;6.63;1.75;;;2.20;99.90;;;;;;5036560;28;20492;-70
2022/03/31 07:40:33;;;;;;;4.90;1.55;;;2.20;99.90;;;;;;5036601;28;20022;-70
2022/03/31 07:42:59;;;;;;;4.13;1.60;;;2.10;99.90;;;;;;5036280;28;20025;-70
2022/03/31 07:45:25;;;;;;;4.53;1.70;;;2.20;99.90;;;;;;5036024;28;20034;-70
2022/03/31 07:47:51;;;;;;;6.18;1.90;;;2.20;99.90;;;;;;5036520;28;20029;-70
2022/03/31 07:50:18;;;;;;;5.47;1.67;;;2.20;99.90;;;;;;5036431;28;20021;-70
2022/03/31 07:52:44;;;;;;;2.35;1.50;;;2.30;99.90;;;;;;5035523;28;20031;-70
2022/03/31 07:55:11;;;;;;;2.88;1.90;;;2.30;99.90;;;;;;5036406;28;20037;-70
2022/03/31 07:57:38;;;;;;;4.50;1.73;;;2.30;99.90;;;;;;5035990;28;20508;-70
2022/03/31 08:00:05;;;;;;;4.20;1.73;;;2.40;99.90;;;;;;5036073;28;20064;-70
2022/03/31 08:02:31;;;;;;;5.90;1.67;;;2.50;99.90;;;;;;5036059;28;20443;-70
2022/03/31 08:04:56;;;;;;;4.40;1.63;;;2.50;99.90;;;;;;5035818;28;20064;-70
2022/03/31 08:07:22;;;;;;;16.92;1.95;;;2.50;99.90;;;;;;5035689;28;20444;-70
2022/03/31 08:09:48;;;;;;;8.77;2.10;;;2.50;99.90;;;;;;5036309;28;20049;-70
2022/03/31 08:12:13;;;;;;;5.50;1.70;;;2.50;99.90;;;;;;5035674;28;20109;-70
2022/03/31 08:14:39;;;;;;;7.45;2.03;;;2.50;99.90;;;;;;5035601;28;20033;-70
2022/03/31 08:17:05;;;;;;;7.40;1.60;;;2.50;99.90;;;;;;5035545;28;20029;-70
2022/03/31 08:19:32;;;;;;;8.80;1.95;;;2.60;99.90;;;;;;5035773;28;20045;-70
2022/03/31 08:22:00;;;;;;;6.50;1.55;;;2.80;99.90;;;;;;5035577;28;20032;-70
2022/03/31 08:24:26;;;;;;;8.35;1.65;;;2.80;99.90;;;;;;5035484;28;20021;-70
2022/03/31 08:26:52;;;;;;;4.43;1.67;;;2.80;99.90;;;;;;5035318;28;20037;-70
2022/03/31 08:29:18;;;;;;;9.27;1.98;;;2.80;99.90;;;;;;5035639;28;20044;-70
2022/03/31 08:31:43;;;;;;;3.22;1.10;;;2.90;99.90;;;;;;5035419;28;20107;-70
2022/03/31 08:34:09;;;;;;;3.92;1.25;;;2.90;99.90;;;;;;5035225;28;20078;-71
2022/03/31 08:36:36;;;;;;;7.05;1.70;;;3.00;99.90;;;;;;5035443;28;20022;-70
2022/03/31 08:39:04;;;;;;;4.40;1.40;;;3.00;99.90;;;;;;5035695;28;20017;-70
2022/03/31 08:41:30;;;;;;;2.88;1.10;;;3.00;99.90;;;;;;5035420;28;20497;-70
2022/03/31 08:43:56;;;;;;;6.97;1.45;;;3.00;99.90;;;;;;5035190;28;20045;-70
2022/03/31 08:46:23;;;;;;;3.92;1.38;;;3.00;99.90;;;;;;5035341;28;20064;-70
2022/03/31 08:48:49;;;;;;;2.38;0.98;;;3.00;99.90;;;;;;5035038;28;20104;-70
2022/03/31 08:51:15;;;;;;;5.13;1.48;;;3.00;99.90;;;;;;5035013;28;20513;-70
2022/03/31 08:53:41;;;;;;;2.40;1.20;;;3.10;99.90;;;;;;5035433;28;20026;-70
2022/03/31 08:56:10;;;;;;;2.58;0.93;;;3.10;99.90;;;;;;5034791;28;20044;-70
2022/03/31 08:58:35;;;;;;;3.42;1.30;;;3.10;99.90;;;;;;5034851;28;20017;-70
2022/03/31 09:01:01;;;;;;;6.25;1.00;;;3.10;99.90;;;;;;5034779;28;20052;-70
2022/03/31 09:03:37;;;;;;;1.35;0.88;;;3.20;99.90;;;;;;5034735;28;20048;-70
2022/03/31 09:06:04;;;;;;;5.90;1.40;;;3.30;99.90;;;;;;5033936;28;20026;-70
2022/03/31 09:08:30;;;;;;;1.67;0.88;;;3.20;99.90;;;;;;5035298;28;20461;-71
2022/03/31 09:11:00;;;;;;;3.33;1.30;;;3.30;99.90;;;;;;5035182;28;20028;-70
2022/03/31 09:13:31;;;;;;;6.07;1.52;;;3.40;99.90;;;;;;5034508;28;20031;-69
2022/03/31 09:16:01;;;;;;;2.83;1.33;;;3.40;99.90;;;;;;5034380;28;20025;-69
2022/03/31 09:18:28;;;;;;;3.90;1.30;;;3.50;99.90;;;;;;5034553;28;20393;-69
2022/03/31 09:20:57;;;;;;;1.92;1.15;;;3.50;99.90;;;;;;5034624;28;20026;-68
2022/03/31 09:23:28;;;;;;;2.67;1.15;;;3.50;99.90;;;;;;5034400;28;20427;-69
2022/03/31 09:26:04;;;;;;;6.43;1.45;;;3.50;99.90;;;;;;5034333;28;20032;-69
2022/03/31 09:28:30;;;;;;;4.25;1.23;;;3.40;99.90;;;;;;5034588;28;20025;-69
2022/03/31 09:30:56;;;;;;;10.07;1.67;;;3.40;99.90;;;;;;5034253;28;20033;-69
2022/03/31 09:33:29;;;;;;;4.07;1.38;;;3.50;99.90;;;;;;5034231;28;20029;-69
2022/03/31 09:35:57;;;;;;;2.78;1.25;;;3.50;99.90;;;;;;5034013;28;20104;-69
2022/03/31 09:38:23;;;;;;;1.42;1.02;;;3.50;99.90;;;;;;5034115;28;20021;-69
2022/03/31 09:40:48;;;;;;;6.78;1.23;;;3.50;99.90;;;;;;5034079;28;20104;-69
2022/03/31 09:43:14;;;;;;;8.45;1.35;;;3.30;99.90;;;;;;5034050;28;20025;-69
2022/03/31 09:45:41;;;;;;;3.28;0.77;;;3.20;99.90;;;;;;5075413;22;20029;-70
2022/03/31 09:48:17;;;;;;;8.18;1.00;;;3.20;99.90;;;;;;5054293;28;20029;-68
2022/03/31 09:50:43;;;;;;;5.60;1.35;;;3.30;99.90;;;;;;5054205;28;20091;-68
2022/03/31 09:53:11;;;;;;;10.60;1.20;;;3.40;99.90;;;;;;5054169;28;20021;-68
2022/03/31 09:55:36;;;;;;;6.15;1.42;;;3.40;99.90;;;;;;5053652;28;20112;-69
2022/03/31 09:58:03;;;;;;;5.05;1.20;;;3.40;99.90;;;;;;5053157;28;20507;-69
2022/03/31 10:00:30;;;;;;;6.18;1.10;;;3.40;99.90;;;;;;5053721;28;20032;-68
2022/03/31 10:02:56;;;;;;;4.38;0.95;;;3.50;99.90;;;;;;5053904;28;20029;-68
2022/03/31 10:05:22;;;;;;;4.40;1.02;;;3.50;99.90;;;;;;5053867;28;20023;-68
2022/03/31 10:07:50;;;;;;;7.18;1.02;;;3.60;99.90;;;;;;5053998;28;20099;-68
2022/03/31 10:10:16;;;;;;;7.50;1.70;;;3.50;99.90;;;;;;5053874;28;20021;-68
2022/03/31 10:13:09;;;;;;;4.82;1.50;;;3.50;99.90;;;;;;5053553;28;20029;-68
2022/03/31 10:15:37;;;;;;;4.00;1.20;;;3.70;99.90;;;;;;5053271;28;20029;-68
2022/03/31 10:18:04;;;;;;;3.47;1.15;;;3.70;99.90;;;;;;5053461;28;20264;-69
2022/03/31 10:20:29;;;;;;;2.50;1.25;;;3.70;99.90;;;;;;5053386;28;20053;-70
2022/03/31 10:25:45;;;;;;;4.72;1.55;;;3.80;99.90;;;;;;5042274;28;20437;-69
2022/03/31 10:28:21;;;;;;;11.25;2.15;;;3.90;99.90;;;;;;5053294;28;20445;-69
2022/03/31 10:31:01;;;;;;;3.13;1.50;;;3.90;99.90;;;;;;5052076;28;20028;-69
2022/03/31 10:33:34;;;;;;;3.47;1.17;;;3.90;99.90;;;;;;5053578;28;20055;-69
2022/03/31 10:36:10;;;;;;;2.03;1.20;;;4.00;99.90;;;;;;5053235;28;20048;-69
2022/03/31 10:38:37;;;;;;;1.65;1.02;;;4.10;99.90;;;;;;5053276;28;20627;-69
2022/03/31 10:41:09;;;;;;;9.30;1.10;;;4.00;99.90;;;;;;5053165;28;20173;-69
2022/03/31 10:43:45;;;;;;;9.68;1.10;;;4.00;99.90;;;;;;5053120;28;20025;-69
2022/03/31 10:46:19;;;;;;;4.70;1.20;;;4.10;99.90;;;;;;5053211;28;20039;-70
2022/03/31 10:48:53;;;;;;;1.60;0.95;;;4.10;99.90;;;;;;5053287;28;20033;-70
2022/03/31 10:51:48;;;;;;;9.30;1.60;;;4.20;99.90;;;;;;5053455;28;20075;-70
2022/03/31 10:54:28;;;;;;;3.47;1.20;;;4.30;99.90;;;;;;5053329;28;20029;-69
2022/03/31 10:57:08;;;;;;;2.22;1.58;;;4.30;99.90;;;;;;5053328;28;20017;-70
2022/03/31 10:59:35;;;;;;;3.03;1.25;;;4.30;99.90;;;;;;5053215;28;20032;-69
2022/03/31 11:02:13;;;;;;;5.45;1.20;;;4.30;99.90;;;;;;5053297;28;20063;-69
2022/03/31 11:04:47;;;;;;;3.13;1.02;;;4.30;99.90;;;;;;5053050;28;20036;-69
2022/03/31 11:07:15;;;;;;;3.40;1.75;;;4.30;99.90;;;;;;5052972;28;20029;-69
2022/03/31 11:09:42;;;;;;;2.10;0.98;;;4.40;99.90;;;;;;5052953;28;20079;-69
2022/03/31 11:12:08;;;;;;;1.40;1.00;;;4.60;99.90;;;;;;5052935;28;20017;-69
2022/03/31 11:14:34;;;;;;;5.25;1.50;;;4.70;99.90;;;;;;5052852;28;20032;-69
2022/03/31 11:16:59;;;;;;;3.33;1.17;;;4.80;99.90;;;;;;5053088;28;20040;-69
2022/03/31 11:19:36;;;;;;;2.97;1.20;;;4.80;99.90;;;;;;5052809;28;20025;-69
2022/03/31 11:22:01;;;;;;;7.50;1.27;;;4.60;99.90;;;;;;5052853;28;20047;-69
2022/03/31 11:24:27;;;;;;;1.17;0.80;;;4.50;99.90;;;;;;5052831;28;20074;-69
2022/03/31 11:26:54;;;;;;;2.17;0.98;;;4.60;99.90;;;;;;5052752;28;20040;-69
2022/03/31 11:29:24;;;;;;;1.95;0.88;;;4.70;99.90;;;;;;5055960;28;20021;-68
2022/03/31 11:31:51;;;;;;;15.23;1.35;;;4.70;99.90;;;;;;5056546;28;20029;-69
2022/03/31 11:34:22;;;;;;;3.97;1.40;;;4.90;99.90;;;;;;5056328;28;20029;-69
2022/03/31 11:36:48;;;;;;;3.45;1.27;;;4.80;99.90;;;;;;5056545;28;20032;-69
2022/03/31 11:39:14;;;;;;;3.45;1.52;;;4.80;99.90;;;;;;5056314;28;20029;-69
2022/03/31 11:41:41;;;;;;;3.00;1.33;;;4.80;99.90;;;;;;5056306;28;20048;-68
2022/03/31 11:44:08;;;;;;;4.22;1.20;;;4.70;99.90;;;;;;5054960;28;20017;-69
2022/03/31 11:46:47;;;;;;;5.35;1.30;;;4.80;99.90;;;;;;5056014;28;20400;-68
2022/03/31 11:49:17;;;;;;;3.70;1.25;;;4.80;99.90;;;;;;5056708;28;20028;-68
2022/03/31 11:51:50;;;;;;;11.13;1.52;;;4.90;99.90;;;;;;5056429;28;20029;-68
2022/03/31 11:54:16;;;;;;;3.20;0.98;;;4.80;99.90;;;;;;5056009;28;20495;-68
2022/03/31 11:56:42;;;;;;;3.92;1.35;;;4.80;99.90;;;;;;5055892;28;20033;-68
2022/03/31 11:59:07;;;;;;;6.30;1.40;;;4.80;99.90;;;;;;5056202;28;20035;-68
2022/03/31 12:01:37;;;;;;;5.28;1.38;;;4.80;99.90;;;;;;5055794;28;20102;-68
2022/03/31 12:04:07;;;;;;;6.40;1.63;;;4.80;99.90;;;;;;5055885;28;20017;-68
2022/03/31 12:06:33;;;;;;;3.20;0.93;;;4.80;99.90;;;;;;5055725;28;20362;-68
2022/03/31 12:08:59;;;;;;;1.58;0.95;;;4.80;99.90;;;;;;5055966;28;20045;-68
2022/03/31 12:11:29;;;;;;;1.80;1.23;;;4.90;99.90;;;;;;5055659;28;20017;-68
2022/03/31 12:14:01;;;;;;;3.92;1.20;;;4.90;99.90;;;;;;5056086;28;20028;-68
2022/03/31 12:16:27;;;;;;;2.78;1.08;;;5.00;99.90;;;;;;5055778;28;20043;-68
2022/03/31 12:18:57;;;;;;;3.55;1.52;;;5.10;99.90;;;;;;5055532;28;20029;-68
2022/03/31 12:21:24;;;;;;;1.45;1.00;;;5.00;99.90;;;;;;5055493;28;20025;-68
2022/03/31 12:23:50;;;;;;;6.78;1.33;;;5.10;99.90;;;;;;5055401;28;20021;-68
2022/03/31 12:26:20;;;;;;;2.38;1.25;;;4.90;99.90;;;;;;5056006;28;20112;-68
2022/03/31 12:28:47;;;;;;;3.17;1.52;;;5.00;99.90;;;;;;5055816;28;20025;-68
2022/03/31 12:31:29;;;;;;;5.03;1.50;;;5.00;99.90;;;;;;5056283;28;20028;-68
2022/03/31 12:33:56;;;;;;;2.28;1.20;;;5.00;99.90;;;;;;5055461;28;20489;-68
2022/03/31 12:36:27;;;;;;;2.80;1.20;;;5.00;99.90;;;;;;5055129;28;20053;-68
2022/03/31 12:38:54;;;;;;;12.18;1.05;;;5.00;99.90;;;;;;5053814;28;20032;-68
2022/03/31 12:41:26;;;;;;;5.00;1.33;;;5.00;99.90;;;;;;5055356;28;20021;-68
2022/03/31 12:44:07;;;;;;;4.28;1.27;;;5.10;99.90;;;;;;5055399;28;20025;-68
2022/03/31 12:46:39;;;;;;;3.22;2.10;;;5.20;99.90;;;;;;5054936;28;20033;-68
2022/03/31 12:49:13;;;;;;;6.88;1.55;;;5.40;99.90;;;;;;5053692;28;20028;-68
2022/03/31 12:51:45;;;;;;;2.42;1.02;;;5.60;99.90;;;;;;5055234;28;20373;-68
2022/03/31 12:54:22;;;;;;;4.43;1.10;;;5.60;99.90;;;;;;5055059;28;20024;-68
2022/03/31 12:56:49;;;;;;;3.05;1.00;;;5.40;99.90;;;;;;5054989;28;20021;-68
2022/03/31 12:59:26;;;;;;;4.68;1.10;;;5.30;99.90;;;;;;5055012;28;20473;-68